CheckWX is a tool to help pilots better visualize weather data.  It is not intended as a substitute for an official pre-flight weather briefing.

04:57:30 UTC

FAUP METAR
Pierre Van Ryneveld Airport
Upington, South Africa
Current

58 mins ago

FAUP 240400Z 22005KT 9999 FEW010 08/03 Q1022 NOSIG
Observed
Jul-24 @ 04:00 UTC
Wind
  • 220° at 5 KTS
Visibility
10,000+ meters
Flight Rules
VFR
Cloud Levels
  • Few at 1,000' AGL
Temperature
C / 46°F
Dewpoint
C / 37°F
Humidity
71%
Altimeter
30.18" Hg
Pressure
1021.92 hPa
Previous

2 hours ago

FAUP 240300Z 22005KT 9999 FEW010 SCT020 09/03 Q1022 NOSIG
Observed
Jul-24 @ 03:00 UTC
Wind
  • 220° at 5 KTS
Visibility
10,000+ meters
Flight Rules
VFR
Cloud Levels
  • Few at 1,000' AGL
  • Scattered at 2,000' AGL
Temperature
C / 48°F
Dewpoint
C / 37°F
Humidity
66%
Altimeter
30.18" Hg
Pressure
1021.92 hPa
Previous

3 hours ago

FAUP 240200Z 23004KT 9999 FEW010 SCT020 09/03 Q1021 NOSIG
Observed
Jul-24 @ 02:00 UTC
Wind
  • 230° at 4 KTS
Visibility
10,000+ meters
Flight Rules
VFR
Cloud Levels
  • Few at 1,000' AGL
  • Scattered at 2,000' AGL
Temperature
C / 48°F
Dewpoint
C / 37°F
Humidity
66%
Altimeter
30.15" Hg
Pressure
1020.92 hPa